createdAt,value
2017-09-04T00:02:26.955Z,6.90
2017-09-04T00:04:54.471Z,6.90
2017-09-04T00:07:21.972Z,7.50
2017-09-04T00:09:49.489Z,7.95
2017-09-04T00:12:16.988Z,6.62
2017-09-04T00:14:44.483Z,8.32
2017-09-04T00:17:12.009Z,7.30
2017-09-04T00:19:39.536Z,7.25
2017-09-04T00:22:07.040Z,7.10
2017-09-04T00:24:34.535Z,7.35
2017-09-04T00:27:02.075Z,6.60
2017-09-04T00:29:29.563Z,7.50
2017-09-04T00:31:57.095Z,6.50
2017-09-04T00:34:24.584Z,7.45
2017-09-04T00:36:52.103Z,7.40
2017-09-04T00:39:19.588Z,8.40
2017-09-04T00:41:47.113Z,8.02
2017-09-04T00:44:14.623Z,6.93
2017-09-04T00:46:42.203Z,7.93
2017-09-04T00:49:09.726Z,6.62
2017-09-04T00:51:37.230Z,7.50
2017-09-04T00:54:04.755Z,6.95
2017-09-04T00:56:32.272Z,7.15
2017-09-04T00:58:59.801Z,7.20
2017-09-04T01:01:27.292Z,7.37
2017-09-04T01:03:54.830Z,6.90
2017-09-04T01:06:22.336Z,6.37
2017-09-04T01:08:49.862Z,6.30
2017-09-04T01:11:17.386Z,7.10
2017-09-04T01:13:44.934Z,7.32
2017-09-04T01:16:12.440Z,6.78
2017-09-04T01:18:39.940Z,6.45
2017-09-04T01:21:07.456Z,7.28
2017-09-04T01:23:34.958Z,6.65
2017-09-04T01:26:02.474Z,6.80
2017-09-04T01:28:29.964Z,6.35
2017-09-04T01:30:57.610Z,6.57
2017-09-04T01:33:25.124Z,6.12
2017-09-04T01:35:52.629Z,6.30
2017-09-04T01:38:20.163Z,6.90
2017-09-04T01:40:47.704Z,6.65
2017-09-04T01:43:15.194Z,6.30
2017-09-04T01:45:42.717Z,7.65
2017-09-04T01:48:10.201Z,7.00
2017-09-04T01:50:37.704Z,6.85
2017-09-04T01:53:05.537Z,7.32
2017-09-04T01:55:33.060Z,6.65
2017-09-04T01:58:00.579Z,6.43
2017-09-04T02:00:28.068Z,6.70
2017-09-04T02:02:55.569Z,6.37
2017-09-04T02:05:23.067Z,6.05
2017-09-04T02:07:50.571Z,6.75
2017-09-04T02:10:18.078Z,7.10
2017-09-04T02:12:45.595Z,6.65
2017-09-04T02:15:13.095Z,5.82
2017-09-04T02:17:40.608Z,7.15
2017-09-04T02:20:08.119Z,6.32
2017-09-04T02:22:35.626Z,6.45
2017-09-04T02:25:03.135Z,7.05
2017-09-04T02:27:30.666Z,6.22
2017-09-04T02:30:01.807Z,6.80
2017-09-04T02:32:29.316Z,6.87
2017-09-04T02:34:56.819Z,7.70
2017-09-04T02:37:24.290Z,7.18
2017-09-04T02:39:51.810Z,7.40
2017-09-04T02:42:19.285Z,6.70
2017-09-04T02:44:46.846Z,7.03
2017-09-04T02:47:14.347Z,6.15
2017-09-04T02:49:41.859Z,6.30
2017-09-04T02:52:09.396Z,6.62
2017-09-04T02:54:36.920Z,7.03
2017-09-04T02:57:04.410Z,7.05
2017-09-04T02:59:31.929Z,6.25
2017-09-04T03:01:59.439Z,7.30
2017-09-04T03:04:26.967Z,6.07
2017-09-04T03:06:54.457Z,6.35
2017-09-04T03:09:22.008Z,7.22
2017-09-04T03:11:49.505Z,6.53
2017-09-04T03:14:17.017Z,7.00
2017-09-04T03:16:44.525Z,6.72
2017-09-04T03:19:12.033Z,7.00
2017-09-04T03:21:39.533Z,6.53
2017-09-04T03:24:07.049Z,6.93
2017-09-04T03:26:34.560Z,8.20
2017-09-04T03:29:02.089Z,7.78
2017-09-04T03:31:29.631Z,7.00
2017-09-04T03:33:57.164Z,7.12
2017-09-04T03:36:24.676Z,7.03
2017-09-04T03:38:52.219Z,6.90
2017-09-04T03:41:19.779Z,8.05
2017-09-04T03:43:47.318Z,7.35
2017-09-04T03:46:14.826Z,7.80
2017-09-04T03:48:42.348Z,6.50
2017-09-04T03:51:10.004Z,7.03
2017-09-04T03:53:37.512Z,6.97
2017-09-04T03:56:05.016Z,6.60
2017-09-04T03:58:32.628Z,6.53
2017-09-04T04:01:00.184Z,6.65
2017-09-04T04:03:27.703Z,7.10
2017-09-04T04:05:55.213Z,6.60
2017-09-04T04:08:22.764Z,7.22
2017-09-04T04:10:50.258Z,6.93
2017-09-04T04:13:17.760Z,7.15
2017-09-04T04:15:45.273Z,6.70
2017-09-04T04:18:12.794Z,7.47
2017-09-04T04:20:40.309Z,7.60
2017-09-04T04:23:07.847Z,7.95
2017-09-04T04:25:35.374Z,7.85
2017-09-04T04:28:02.879Z,7.15
2017-09-04T04:30:30.397Z,8.38
2017-09-04T04:32:58.002Z,7.75
2017-09-04T04:35:25.680Z,8.18
2017-09-04T04:37:53.217Z,8.75
2017-09-04T04:40:20.827Z,8.43
2017-09-04T04:42:48.355Z,9.68
2017-09-04T04:45:15.953Z,9.15
2017-09-04T04:47:43.471Z,8.82
2017-09-04T04:50:11.018Z,8.52
2017-09-04T04:52:38.519Z,8.68
2017-09-04T04:55:06.147Z,7.55
2017-09-04T04:57:33.641Z,7.93
2017-09-04T05:00:01.180Z,9.07
2017-09-04T05:02:28.697Z,10.93
2017-09-04T05:04:56.272Z,8.30
2017-09-04T05:07:23.780Z,7.95
2017-09-04T05:09:51.324Z,7.72
2017-09-04T05:12:18.896Z,8.05
2017-09-04T05:14:46.465Z,8.68
2017-09-04T05:17:14.016Z,7.65
2017-09-04T05:19:41.575Z,7.55
2017-09-04T05:22:09.751Z,7.18
2017-09-04T05:24:37.312Z,7.97
2017-09-04T05:27:04.811Z,7.28
2017-09-04T05:29:33.296Z,7.35
2017-09-04T05:32:00.857Z,9.20
2017-09-04T05:34:28.475Z,9.80
2017-09-04T05:36:56.023Z,10.35
2017-09-04T05:39:23.547Z,11.57
2017-09-04T05:41:51.066Z,11.75
2017-09-04T05:44:18.591Z,11.40
2017-09-04T05:46:46.103Z,12.10
2017-09-04T05:49:13.661Z,11.32
2017-09-04T05:51:41.203Z,13.27
2017-09-04T05:54:08.716Z,12.93
2017-09-04T05:56:36.253Z,12.52
2017-09-04T05:59:03.847Z,12.20
2017-09-04T06:01:31.343Z,14.20
2017-09-04T06:03:58.872Z,12.68
2017-09-04T06:06:26.413Z,13.93
2017-09-04T06:08:53.943Z,11.70
2017-09-04T06:11:21.451Z,12.32
2017-09-04T06:13:48.954Z,13.73
2017-09-04T06:16:16.477Z,13.00
2017-09-04T06:18:43.982Z,14.00
2017-09-04T06:21:11.487Z,13.95
2017-09-04T06:23:38.994Z,14.35
2017-09-04T06:26:06.530Z,15.30
2017-09-04T06:28:34.047Z,15.30
2017-09-04T06:31:01.555Z,14.68
2017-09-04T06:33:29.094Z,15.35
2017-09-04T06:35:56.626Z,15.50
2017-09-04T06:38:24.280Z,15.52
2017-09-04T06:40:51.804Z,15.50
2017-09-04T06:43:19.311Z,15.93
2017-09-04T06:45:46.883Z,16.40
2017-09-04T06:48:15.047Z,13.68
2017-09-04T06:50:42.590Z,14.10
2017-09-04T06:53:10.209Z,16.10
2017-09-04T06:55:37.935Z,15.63
2017-09-04T06:58:05.524Z,15.88
2017-09-04T07:00:33.167Z,14.00
2017-09-04T07:03:00.708Z,15.80
2017-09-04T07:05:28.249Z,14.45
2017-09-04T07:07:55.763Z,12.45
2017-09-04T07:10:23.328Z,12.77
2017-09-04T07:12:50.866Z,13.27
2017-09-04T07:15:18.390Z,11.77
2017-09-04T07:17:45.897Z,11.45
2017-09-04T07:20:13.405Z,11.30
2017-09-04T07:22:40.976Z,13.13
2017-09-04T07:25:08.478Z,12.68
2017-09-04T07:27:36.021Z,10.90
2017-09-04T07:30:03.568Z,10.57
2017-09-04T07:32:31.115Z,8.95
2017-09-04T07:34:58.608Z,8.65
2017-09-04T07:37:26.136Z,7.95
2017-09-04T07:39:53.678Z,7.47
2017-09-04T07:42:21.219Z,7.50
2017-09-04T07:44:48.835Z,8.23
2017-09-04T07:47:16.357Z,8.25
2017-09-04T07:49:43.850Z,7.47
2017-09-04T07:52:13.609Z,7.90
2017-09-04T07:54:41.132Z,6.47
2017-09-04T07:57:08.629Z,6.07
2017-09-04T07:59:36.287Z,6.50
2017-09-04T08:02:03.810Z,6.82
2017-09-04T08:04:31.355Z,6.12
2017-09-04T08:06:58.898Z,6.10
2017-09-04T08:09:26.413Z,5.20
2017-09-04T08:11:54.439Z,5.47
2017-09-04T08:14:21.995Z,5.60
2017-09-04T08:16:49.720Z,4.40
2017-09-04T08:19:17.340Z,4.75
2017-09-04T08:21:44.850Z,4.70
2017-09-04T08:24:12.369Z,5.18
2017-09-04T08:26:39.946Z,4.95
2017-09-04T08:29:07.451Z,5.22
2017-09-04T08:31:35.023Z,4.50
2017-09-04T08:34:02.539Z,4.75
2017-09-04T08:36:30.061Z,4.05
2017-09-04T08:38:57.571Z,5.05
2017-09-04T08:41:25.113Z,6.05
2017-09-04T08:43:52.640Z,4.75
2017-09-04T08:46:20.123Z,4.90
2017-09-04T08:48:47.644Z,4.37
2017-09-04T08:51:15.174Z,4.12
2017-09-04T08:53:42.707Z,4.28
2017-09-04T08:56:10.212Z,4.70
2017-09-04T08:58:37.755Z,4.40
2017-09-04T09:01:05.282Z,4.50
2017-09-04T09:03:32.889Z,5.30
2017-09-04T09:06:01.148Z,3.83
2017-09-04T09:08:29.039Z,4.03
2017-09-04T09:10:56.543Z,3.58
2017-09-04T09:13:24.076Z,4.00
2017-09-04T09:15:51.576Z,4.22
2017-09-04T09:18:19.227Z,5.35
2017-09-04T09:20:46.808Z,3.90
2017-09-04T09:23:14.389Z,3.53
2017-09-04T09:25:41.986Z,4.30
2017-09-04T09:28:09.529Z,4.87
2017-09-04T09:30:37.086Z,4.57
2017-09-04T09:33:04.611Z,4.50
2017-09-04T09:35:32.171Z,4.12
2017-09-04T09:37:59.811Z,4.43
2017-09-04T09:40:27.354Z,3.83
2017-09-04T09:42:54.855Z,4.15
2017-09-04T09:45:22.387Z,3.05
2017-09-04T09:47:49.909Z,5.43
2017-09-04T09:50:17.411Z,4.85
2017-09-04T09:52:44.911Z,4.90
2017-09-04T09:55:12.430Z,5.35
2017-09-04T09:57:39.918Z,6.35
2017-09-04T10:00:07.428Z,5.90
2017-09-04T10:02:34.953Z,6.85
2017-09-04T10:05:03.363Z,5.30
2017-09-04T10:07:30.894Z,5.87
2017-09-04T10:09:58.403Z,4.20
2017-09-04T10:12:25.961Z,6.85
2017-09-04T10:14:53.460Z,6.00
2017-09-04T10:17:20.958Z,6.37
2017-09-04T10:19:48.484Z,5.85
2017-09-04T10:22:16.090Z,6.05
2017-09-04T10:24:43.598Z,7.10
2017-09-04T10:27:11.176Z,6.75
2017-09-04T10:29:38.785Z,6.62
2017-09-04T10:32:06.372Z,6.70
2017-09-04T10:34:33.885Z,5.80
2017-09-04T10:37:01.413Z,5.20
2017-09-04T10:39:28.938Z,5.97
2017-09-04T10:41:56.466Z,5.70
2017-09-04T10:44:23.988Z,5.20
2017-09-04T10:46:51.509Z,6.78
2017-09-04T10:49:19.030Z,5.40
2017-09-04T10:51:46.534Z,5.60
2017-09-04T10:54:14.071Z,4.83
2017-09-04T10:56:41.559Z,6.00
2017-09-04T10:59:09.074Z,7.10
2017-09-04T11:01:36.599Z,5.00
2017-09-04T11:04:04.106Z,4.50
2017-09-04T11:06:31.719Z,4.15
2017-09-04T11:08:59.231Z,4.73
2017-09-04T11:11:26.750Z,4.70
2017-09-04T11:13:54.291Z,5.10
2017-09-04T11:16:21.805Z,5.43
2017-09-04T11:18:49.325Z,6.80
2017-09-04T11:21:16.832Z,5.83
2017-09-04T11:23:44.331Z,5.03
2017-09-04T11:26:11.839Z,5.80
2017-09-04T11:28:39.482Z,4.33
2017-09-04T11:31:07.021Z,6.00
2017-09-04T11:33:34.539Z,4.80
2017-09-04T11:36:02.073Z,6.00
2017-09-04T11:38:29.594Z,4.53
2017-09-04T11:40:57.146Z,4.80
2017-09-04T11:43:24.643Z,4.20
2017-09-04T11:45:52.190Z,5.70
2017-09-04T11:48:19.699Z,5.90
2017-09-04T11:50:47.308Z,4.70
2017-09-04T11:53:14.876Z,5.60
2017-09-04T11:55:42.385Z,4.47
2017-09-04T11:58:10.018Z,4.70
2017-09-04T12:00:37.544Z,6.23
2017-09-04T12:03:05.065Z,5.13
2017-09-04T12:05:32.583Z,5.97
2017-09-04T12:08:00.224Z,5.30
2017-09-04T12:10:27.767Z,4.90
2017-09-04T12:12:55.271Z,5.50
2017-09-04T12:15:22.813Z,5.20
2017-09-04T12:17:50.359Z,5.00
2017-09-04T12:20:17.888Z,4.50
2017-09-04T12:22:45.404Z,5.20
2017-09-04T12:25:12.961Z,4.10
2017-09-04T12:27:40.489Z,4.57
2017-09-04T12:30:08.062Z,6.07
2017-09-04T12:32:35.577Z,5.30
2017-09-04T12:35:03.108Z,5.20
2017-09-04T12:37:30.684Z,5.17
2017-09-04T12:39:58.233Z,4.20
2017-09-04T12:42:25.755Z,5.03
2017-09-04T12:44:53.271Z,5.20
2017-09-04T12:47:20.768Z,4.50
2017-09-04T12:49:48.295Z,4.00
2017-09-04T12:52:15.808Z,4.70
2017-09-04T12:54:44.132Z,4.13
2017-09-04T12:57:11.687Z,4.53
2017-09-04T12:59:39.180Z,4.47
2017-09-04T13:02:06.714Z,5.60
2017-09-04T13:04:34.271Z,4.43
2017-09-04T13:07:01.791Z,4.10
2017-09-04T13:09:29.324Z,4.37
2017-09-04T13:12:02.620Z,5.40
2017-09-04T13:14:35.944Z,4.90
2017-09-04T13:17:09.202Z,5.10
2017-09-04T13:19:42.327Z,4.50
2017-09-04T13:22:15.445Z,5.87
2017-09-04T13:25:00.621Z,6.40
2017-09-04T13:27:34.618Z,5.67
2017-09-04T13:32:37.710Z,6.17
2017-09-04T13:35:10.767Z,6.67
2017-09-04T13:37:43.831Z,6.20
2017-09-04T13:43:18.641Z,5.10
2017-09-04T13:45:51.710Z,6.57
2017-09-04T13:48:24.914Z,5.40
2017-09-04T13:53:53.347Z,5.20
2017-09-04T13:59:25.295Z,6.37
2017-09-04T14:01:58.521Z,6.00
2017-09-04T14:04:28.775Z,6.57
2017-09-04T14:07:02.004Z,6.30
2017-09-04T14:12:33.691Z,5.80
2017-09-04T14:15:06.906Z,5.17
2017-09-04T14:20:31.062Z,5.17
2017-09-04T14:22:58.532Z,5.40
2017-09-04T14:25:26.047Z,4.10
2017-09-04T14:27:53.558Z,6.73
2017-09-04T14:30:21.070Z,7.23
2017-09-04T14:32:48.647Z,6.30
2017-09-04T14:35:16.168Z,6.13
2017-09-04T14:37:43.685Z,5.40
2017-09-04T14:40:27.865Z,6.57
2017-09-04T14:45:52.146Z,6.33
2017-09-04T14:48:19.655Z,6.70
2017-09-04T14:50:47.185Z,6.47
2017-09-04T14:53:14.694Z,5.73
2017-09-04T14:55:42.175Z,6.03
2017-09-04T14:58:09.695Z,5.60
2017-09-04T15:00:37.188Z,6.73
2017-09-04T15:03:04.766Z,6.00
2017-09-04T15:05:32.258Z,6.57
2017-09-04T15:07:59.781Z,7.90
2017-09-04T15:10:27.294Z,6.27
2017-09-04T15:12:54.804Z,6.17
2017-09-04T15:15:22.315Z,5.30
2017-09-04T15:17:49.825Z,4.60
2017-09-04T15:20:17.324Z,6.70
2017-09-04T15:22:44.867Z,6.17
2017-09-04T15:25:12.382Z,7.17
2017-09-04T15:27:39.914Z,6.93
2017-09-04T15:30:07.434Z,5.10
2017-09-04T15:32:34.940Z,5.10
2017-09-04T15:35:02.487Z,5.00
2017-09-04T15:37:30.031Z,5.53
2017-09-04T15:39:57.615Z,5.93
2017-09-04T15:42:25.164Z,5.57
2017-09-04T15:44:52.731Z,6.17
2017-09-04T15:47:20.248Z,5.13
2017-09-04T15:49:47.838Z,6.43
2017-09-04T15:52:15.322Z,6.23
2017-09-04T15:54:42.831Z,5.60
2017-09-04T15:57:10.344Z,5.60
2017-09-04T15:59:37.852Z,7.13
2017-09-04T16:02:05.385Z,6.40
2017-09-04T16:04:32.934Z,6.60
2017-09-04T16:07:01.296Z,5.37
2017-09-04T16:09:28.825Z,6.17
2017-09-04T16:12:01.025Z,6.50
2017-09-04T16:14:38.448Z,5.97
2017-09-04T16:17:10.462Z,6.10
2017-09-04T16:19:38.398Z,5.30
2017-09-04T16:22:06.719Z,6.20
2017-09-04T16:24:38.000Z,7.03
2017-09-04T16:27:08.028Z,6.80
2017-09-04T16:29:36.004Z,7.50
2017-09-04T16:32:04.184Z,6.07
2017-09-04T16:34:47.501Z,5.70
2017-09-04T16:40:12.570Z,5.50
2017-09-04T16:45:56.336Z,5.20
2017-09-04T16:48:23.871Z,7.27
2017-09-04T16:51:06.321Z,7.00
2017-09-04T16:53:44.792Z,5.00
2017-09-04T16:56:12.377Z,5.30
2017-09-04T16:58:39.922Z,5.00
2017-09-04T17:01:07.413Z,6.30
2017-09-04T17:03:34.977Z,5.50
2017-09-04T17:06:02.502Z,5.57
2017-09-04T17:08:30.680Z,4.70
2017-09-04T17:10:59.022Z,5.35
2017-09-04T17:13:26.599Z,6.40
2017-09-04T17:15:54.806Z,6.90
2017-09-04T17:18:22.965Z,6.47
2017-09-04T17:20:53.967Z,6.43
2017-09-04T17:23:21.783Z,5.50
2017-09-04T17:25:49.362Z,6.30
2017-09-04T17:28:16.980Z,5.90
2017-09-04T17:30:44.549Z,7.47
2017-09-04T17:33:12.302Z,8.07
2017-09-04T17:35:39.858Z,7.72
2017-09-04T17:38:07.425Z,8.35
2017-09-04T17:40:35.032Z,8.52
2017-09-04T17:43:02.603Z,7.45
2017-09-04T17:45:30.149Z,7.00
2017-09-04T17:47:57.776Z,7.50
2017-09-04T17:50:25.414Z,8.07
2017-09-04T17:52:52.939Z,7.45
2017-09-04T17:55:20.454Z,11.18
2017-09-04T17:57:48.099Z,7.43
2017-09-04T18:00:15.657Z,8.15
2017-09-04T18:02:43.172Z,7.87
2017-09-04T18:05:10.893Z,8.23
2017-09-04T18:07:38.445Z,7.15
2017-09-04T18:10:06.018Z,6.57
2017-09-04T18:12:33.565Z,6.62
2017-09-04T18:15:01.142Z,7.45
2017-09-04T18:19:54.631Z,6.93
2017-09-04T18:22:22.208Z,5.95
2017-09-04T18:24:49.838Z,6.75
2017-09-04T18:27:17.591Z,7.43
2017-09-04T18:29:47.111Z,6.10
2017-09-04T18:32:15.050Z,6.70
2017-09-04T18:34:42.940Z,6.45
2017-09-04T18:37:14.435Z,6.82
2017-09-04T18:39:42.034Z,6.80
2017-09-04T18:42:10.640Z,6.62
2017-09-04T18:44:38.278Z,7.65
2017-09-04T18:47:05.997Z,6.10
2017-09-04T18:49:33.600Z,6.55
2017-09-04T18:52:01.141Z,6.97
2017-09-04T18:54:29.286Z,7.15
2017-09-04T18:56:56.881Z,7.65
2017-09-04T18:59:25.436Z,7.95
2017-09-04T19:01:53.064Z,9.23
2017-09-04T19:04:20.845Z,8.25
2017-09-04T19:06:49.589Z,9.50
2017-09-04T19:09:18.059Z,9.10
2017-09-04T19:11:45.866Z,9.30
2017-09-04T19:14:13.412Z,9.13
2017-09-04T19:16:41.992Z,9.25
2017-09-04T19:19:09.617Z,9.13
2017-09-04T19:21:38.444Z,11.15
2017-09-04T19:24:06.067Z,10.52
2017-09-04T19:26:34.731Z,10.68
2017-09-04T19:29:03.756Z,10.48
2017-09-04T19:31:31.285Z,10.75
2017-09-04T19:33:58.904Z,10.60
2017-09-04T19:36:26.499Z,11.30
2017-09-04T19:38:54.061Z,11.15
2017-09-04T19:41:21.627Z,11.10
2017-09-04T19:43:49.332Z,11.00
2017-09-04T19:46:16.927Z,10.80
2017-09-04T19:48:44.869Z,11.32
2017-09-04T19:51:12.497Z,11.55
2017-09-04T19:53:40.078Z,11.18
2017-09-04T19:56:07.737Z,12.13
2017-09-04T19:58:35.350Z,11.85
2017-09-04T20:01:03.265Z,12.20
2017-09-04T20:03:30.823Z,12.27
2017-09-04T20:05:58.424Z,12.18
2017-09-04T20:08:25.984Z,12.35
2017-09-04T20:10:53.582Z,13.23
2017-09-04T20:13:21.170Z,12.50
2017-09-04T20:15:49.751Z,13.23
2017-09-04T20:18:17.408Z,12.75
2017-09-04T20:20:44.963Z,13.30
2017-09-04T20:23:12.540Z,13.48
2017-09-04T20:25:40.132Z,13.10
2017-09-04T20:28:07.831Z,12.70
2017-09-04T20:30:35.347Z,14.27
2017-09-04T20:33:03.839Z,13.13
2017-09-04T20:35:31.383Z,13.95
2017-09-04T20:37:59.016Z,14.40
2017-09-04T20:40:26.808Z,14.15
2017-09-04T20:42:54.951Z,14.18
2017-09-04T20:45:22.647Z,14.32
2017-09-04T20:47:50.208Z,13.57
2017-09-04T20:50:17.776Z,14.57
2017-09-04T20:52:45.421Z,13.38
2017-09-04T20:55:12.995Z,14.77
2017-09-04T20:57:40.686Z,14.90
2017-09-04T21:00:08.222Z,14.57
2017-09-04T21:02:35.759Z,13.85
2017-09-04T21:05:03.336Z,15.02
2017-09-04T21:07:31.034Z,13.73
2017-09-04T21:09:58.856Z,13.68
2017-09-04T21:12:26.509Z,14.90
2017-09-04T21:14:55.067Z,16.70
2017-09-04T21:17:22.622Z,15.23
2017-09-04T21:19:51.278Z,15.90
2017-09-04T21:22:18.871Z,15.20
2017-09-04T21:24:46.460Z,15.55
2017-09-04T21:27:14.068Z,16.73
2017-09-04T21:29:41.712Z,16.87
2017-09-04T21:32:09.722Z,17.05
2017-09-04T21:34:37.326Z,16.77
2017-09-04T21:37:05.696Z,16.02
2017-09-04T21:39:33.539Z,17.33
2017-09-04T21:42:01.073Z,17.55
2017-09-04T21:44:28.681Z,18.15
2017-09-04T21:46:56.231Z,17.00
2017-09-04T21:49:23.763Z,16.58
2017-09-04T21:51:51.300Z,16.05
2017-09-04T21:54:18.871Z,17.92
2017-09-04T21:56:46.479Z,17.25
2017-09-04T21:59:14.028Z,16.75
2017-09-04T22:01:41.575Z,17.15
2017-09-04T22:04:09.156Z,17.37
2017-09-04T22:06:36.716Z,16.30
2017-09-04T22:09:04.305Z,20.20
2017-09-04T22:11:31.830Z,17.85
2017-09-04T22:13:59.371Z,16.75
2017-09-04T22:16:27.227Z,18.77
2017-09-04T22:18:54.715Z,17.80
2017-09-04T22:21:22.282Z,20.05
2017-09-04T22:23:49.835Z,16.23
2017-09-04T22:26:17.395Z,18.85
2017-09-04T22:28:44.912Z,19.25
2017-09-04T22:31:12.428Z,18.05
2017-09-04T22:33:39.977Z,19.25
2017-09-04T22:36:07.481Z,18.42
2017-09-04T22:38:35.027Z,19.12
2017-09-04T22:41:02.699Z,18.25
2017-09-04T22:43:30.216Z,18.35
2017-09-04T22:45:57.819Z,19.30
2017-09-04T22:48:25.460Z,18.65
2017-09-04T22:50:52.980Z,19.42
2017-09-04T22:53:20.531Z,18.83
2017-09-04T22:55:48.675Z,20.80
2017-09-04T22:58:16.691Z,19.95
2017-09-04T23:00:44.240Z,19.15
2017-09-04T23:03:11.808Z,17.48
2017-09-04T23:05:39.351Z,18.58
2017-09-04T23:08:06.904Z,19.17
2017-09-04T23:10:34.452Z,18.55
2017-09-04T23:13:02.049Z,18.58
2017-09-04T23:15:29.589Z,18.92
2017-09-04T23:17:57.100Z,18.23
2017-09-04T23:20:24.612Z,17.87
2017-09-04T23:22:52.152Z,17.85
2017-09-04T23:25:19.693Z,19.17
2017-09-04T23:27:47.183Z,17.08
2017-09-04T23:30:14.740Z,18.45
2017-09-04T23:32:42.253Z,19.55
2017-09-04T23:35:09.791Z,18.33
2017-09-04T23:37:37.317Z,20.58
2017-09-04T23:40:04.875Z,18.92
2017-09-04T23:42:32.390Z,19.27
2017-09-04T23:44:59.916Z,16.95
2017-09-04T23:47:27.467Z,19.50
2017-09-04T23:49:55.012Z,19.77
2017-09-04T23:52:22.557Z,17.87
2017-09-04T23:54:50.072Z,16.70
2017-09-04T23:57:17.620Z,18.60
2017-09-04T23:59:45.131Z,19.00
